16:37
Airports
Links
Donate
Help keep this website running!
PayPal
Bitcoin
METAR
KNIP 231553Z 04012KT 10SM SCT033 BKN060 BKN250 29/22 A2997 RMK AO2 SLP144 T2 SET T02940222
Current Weather Conditions at KNIP
VFR 15:53:00 23-09-17
Automated station
Altimeter:29.97 hg
Temp:29.4°c 84°f
Dew point:22.2°c 72°f
Wind:12 knots, 13.8 mph, 6 m/s, from 40°
Visibility:10.0 statute miles
25000(BKN) Broken
6000(BKN) Broken
3300(SCT) Scattered
Past METAR reports
VFR 14:53:00 23-09-17
Automated station
Altimeter:29.97 hg
Temp:29.4°c 84°f
Dew point:21.7°c 70°f
Wind:14 knots, 16.1 mph, 7 m/s, from 50°
Visibility:10.0 statute miles
25000(BKN) Broken
3700(BKN) Broken
3000(SCT) Scattered
KNIP 231453Z 05014KT 10SM SCT030 BKN037 BKN250 29/22 A2997 RMK AO2 SLP145 T2 SET T02940217 51006
VFR 13:53:00 23-09-17
Automated station
Altimeter:29.96 hg
Temp:27.8°c 81°f
Dew point:22.8°c 72°f
Wind:9 knots, 10.4 mph, 5 m/s, from 40°
Visibility:10.0 statute miles
25000(SCT) Scattered
10000(SCT) Scattered
3000(FEW) A few
KNIP 231353Z 04009KT 10SM FEW030 SCT100 SCT250 28/23 A2996 RMK AO2 SLP142 T02780228
VFR 12:53:00 23-09-17
Automated station
Altimeter:29.96 hg
Temp:26.1°c 79°f
Dew point:22.8°c 72°f
Wind:7 knots, 8.1 mph, 4 m/s, from 360°
Visibility:10.0 statute miles
25000(SCT) Scattered
3000(FEW) A few
KNIP 231253Z 36007KT 10SM FEW030 SCT250 26/23 A2996 RMK AO2 SLP142 T02610228
VFR 11:53:00 23-09-17
Automated station
Altimeter:29.95 hg
Temp:25.0°c 77°f
Dew point:22.8°c 72°f
Wind:8 knots, 9.2 mph, 4 m/s, from 340°
Visibility:10.0 statute miles
25000(FEW) A few
4000(FEW) A few
KNIP 231153Z 34008KT 10SM FEW040 FEW250 25/23 A2995 RMK AO2 SLP139 TCU DSNT NE T02500228 10261 20244 53010
VFR 10:53:00 23-09-17
Automated station
Altimeter:29.94 hg
Temp:24.4°c 75°f
Dew point:22.2°c 72°f
Wind:6 knots, 6.9 mph, 3 m/s, from 320°
Visibility:10.0 statute miles
25000(FEW) A few
3500(FEW) A few
KNIP 231053Z 32006KT 10SM FEW035 FEW250 24/22 A2994 RMK AO2 SLP135 CB DSNT E T02440222
TAF
TAF KNIP 2315/2415 35007KT 9999 FEW045 FEW075 QNH2982INS BECMG 2318/2320 06015G20KT 9999 VCTS FEW025CB BKN035 BKN200 QNH2983INS BECMG 2403/2405 04010KT 9999 VCSH FEW025 BKN035 QNH2982INS T30/2318Z T25/2410Z FN00185
Forecast at KNIP
15:00 23-09-17 to 18:00 23-09-17
Wind:7 Knots from 350°
Visibility:6.21 statute miles
4500FEW A few
7500FEW A few
BECMG 18:00 23-09-17 to 03:00 24-09-17
VCTS
Wind:15 Knots from 60°
Visibility:6.21 statute miles
2500FEW A few
3500BKN Broken
20000BKN Broken
BECMG 03:00 24-09-17 to 15:00 24-09-17
VCSH
Wind:10 Knots from 40°
Visibility:6.21 statute miles
2500FEW A few
3500BKN Broken